Kota Ria — 9VJK4 — position and weather

sailwx.info

Track history (hours):
 
Tides and Currents Weather Stations Pressure Air Temp Water Temp Dewpoint Dewpoint Depression Visibility Wind Speed Wind Dir Waves Ship Positions

Kota Ria

Last reported at 2015-Jan-28 00:31 UTC. Time now 2015-Jan-28 01:26 UTC.
Position N 01°15' E 103°52'.

Length 146 m; draft 4.6 m.

Type: Cargo ship. MMSI: 565050000.

Date/timePositionNaut miles runAvg speedWind from/ knotsBaromVisibWave heightAir tempDewpointWater temp
2015-Jan-28 00:31N 01°15' E 103°52'0 0.1
2015-Jan-27 23:28N 01°15' E 103°52'0 0.0
2015-Jan-27 22:31N 01°15' E 103°52'0 0.0
2015-Jan-27 21:28N 01°15' E 103°52'0 0.0
2015-Jan-27 20:28N 01°15' E 103°52'0 0.0
2015-Jan-27 19:28N 01°15' E 103°52'0 0.0
2015-Jan-27 18:28N 01°15' E 103°52'0 0.0
2015-Jan-27 17:28N 01°15' E 103°52'0 0.0
2015-Jan-27 16:28N 01°15' E 103°52'0 0.0
2015-Jan-27 15:28N 01°15' E 103°52'0 0.0
2015-Jan-27 14:22N 01°15' E 103°52'0 0.0
2015-Jan-27 13:31N 01°15' E 103°52'0 0.0
2015-Jan-27 12:31N 01°15' E 103°52'0 0.0
2015-Jan-27 11:31N 01°15' E 103°52'3 2.6
2015-Jan-27 10:32N 01°13' E 103°52'8 7.3
2015-Jan-27 09:27N 01°17' E 103°46'0 0.2
2015-Jan-27 08:32N 01°17' E 103°46'0 0.0
2015-Jan-27 07:26N 01°17' E 103°46'0 0.0
2015-Jan-27 05:32N 01°17' E 103°46'0 0.0
2015-Jan-27 04:14N 01°17' E 103°46'0 0.0
2015-Jan-27 03:32N 01°17' E 103°46'0 0.0
2015-Jan-27 02:29N 01°17' E 103°46'0 0.0
2015-Jan-27 01:29N 01°17' E 103°46'0 0.0
2015-Jan-27 00:17N 01°17' E 103°46'0 0.0
2015-Jan-26 23:29N 01°17' E 103°46'0 0.0
2015-Jan-26 22:32N 01°17' E 103°46'0 0.0
2015-Jan-26 21:26N 01°17' E 103°46'0 0.0
2015-Jan-26 19:32N 01°17' E 103°46'0 0.2
2015-Jan-26 18:33N 01°17' E 103°46'5 5.5
2015-Jan-26 17:33N 01°13' E 103°49'10 9.7
2015-Jan-26 16:33N 01°15' E 103°58'1111.4
2015-Jan-26 15:33N 01°17' E 104°09'  
2015-Jan-20 08:31N 01°15' E 104°08'1515.2
2015-Jan-20 07:34N 01°12' E 103°53'9 8.5
2015-Jan-20 06:33N 01°16' E 103°45'1 0.6
2015-Jan-20 04:12N 01°17' E 103°46'0 0.0
2015-Jan-20 03:24N 01°17' E 103°46'0 0.0
2015-Jan-20 02:30N 01°17' E 103°46'0 0.0
2015-Jan-20 01:18N 01°17' E 103°46'0 0.0
2015-Jan-20 00:30N 01°17' E 103°46'0 0.0
2015-Jan-19 23:30N 01°17' E 103°46'0 0.0
2015-Jan-19 22:33N 01°17' E 103°46'0 0.0
2015-Jan-19 21:30N 01°17' E 103°46'0 0.0
2015-Jan-19 20:30N 01°17' E 103°46'0 0.0
2015-Jan-19 19:30N 01°17' E 103°46'0 0.0
2015-Jan-19 18:30N 01°17' E 103°46'0 0.0
2015-Jan-19 17:30N 01°17' E 103°46'0 0.0
2015-Jan-19 16:30N 01°17' E 103°46'0 0.0
2015-Jan-19 15:33N 01°17' E 103°46'2 1.5
2015-Jan-19 14:34N 01°15' E 103°46'8 7.6
2015-Jan-19 13:32N 01°13' E 103°54'6 6.4
2015-Jan-19 12:33N 01°15' E 103°60'8 8.5
2015-Jan-19 11:33N 01°17' E 104°08'  
Track history (hours):
 
Tides and Currents Weather Stations Pressure Air Temp Water Temp Dewpoint Dewpoint Depression Visibility Wind Speed Wind Dir Waves Ship Positions

Kota Ria

Last reported at 2015-Jan-28 00:31 UTC. Time now 2015-Jan-28 01:26 UTC.
Position N 01°15' E 103°52'.

Length 146 m; draft 4.6 m.

Type: Cargo ship. MMSI: 565050000.

Date/timePositionNaut miles runAvg speedWind from/ knotsBaromVisibWave heightAir tempDewpointWater temp
2015-Jan-28 00:31N 01°15' E 103°52'0 0.1
2015-Jan-27 23:28N 01°15' E 103°52'0 0.0
2015-Jan-27 22:31N 01°15' E 103°52'0 0.0
2015-Jan-27 21:28N 01°15' E 103°52'0 0.0
2015-Jan-27 20:28N 01°15' E 103°52'0 0.0
2015-Jan-27 19:28N 01°15' E 103°52'0 0.0
2015-Jan-27 18:28N 01°15' E 103°52'0 0.0
2015-Jan-27 17:28N 01°15' E 103°52'0 0.0
2015-Jan-27 16:28N 01°15' E 103°52'0 0.0
2015-Jan-27 15:28N 01°15' E 103°52'0 0.0
2015-Jan-27 14:22N 01°15' E 103°52'0 0.0
2015-Jan-27 13:31N 01°15' E 103°52'0 0.0
2015-Jan-27 12:31N 01°15' E 103°52'0 0.0
2015-Jan-27 11:31N 01°15' E 103°52'3 2.6
2015-Jan-27 10:32N 01°13' E 103°52'8 7.3
2015-Jan-27 09:27N 01°17' E 103°46'0 0.2
2015-Jan-27 08:32N 01°17' E 103°46'0 0.0
2015-Jan-27 07:26N 01°17' E 103°46'0 0.0
2015-Jan-27 05:32N 01°17' E 103°46'0 0.0
2015-Jan-27 04:14N 01°17' E 103°46'0 0.0
2015-Jan-27 03:32N 01°17' E 103°46'0 0.0
2015-Jan-27 02:29N 01°17' E 103°46'0 0.0
2015-Jan-27 01:29N 01°17' E 103°46'0 0.0
2015-Jan-27 00:17N 01°17' E 103°46'0 0.0
2015-Jan-26 23:29N 01°17' E 103°46'0 0.0
2015-Jan-26 22:32N 01°17' E 103°46'0 0.0
2015-Jan-26 21:26N 01°17' E 103°46'0 0.0
2015-Jan-26 19:32N 01°17' E 103°46'0 0.2
2015-Jan-26 18:33N 01°17' E 103°46'5 5.5
2015-Jan-26 17:33N 01°13' E 103°49'10 9.7
2015-Jan-26 16:33N 01°15' E 103°58'1111.4
2015-Jan-26 15:33N 01°17' E 104°09'  
2015-Jan-20 08:31N 01°15' E 104°08'1515.2
2015-Jan-20 07:34N 01°12' E 103°53'9 8.5
2015-Jan-20 06:33N 01°16' E 103°45'1 0.6
2015-Jan-20 04:12N 01°17' E 103°46'0 0.0
2015-Jan-20 03:24N 01°17' E 103°46'0 0.0
2015-Jan-20 02:30N 01°17' E 103°46'0 0.0
2015-Jan-20 01:18N 01°17' E 103°46'0 0.0
2015-Jan-20 00:30N 01°17' E 103°46'0 0.0
2015-Jan-19 23:30N 01°17' E 103°46'0 0.0
2015-Jan-19 22:33N 01°17' E 103°46'0 0.0
2015-Jan-19 21:30N 01°17' E 103°46'0 0.0
2015-Jan-19 20:30N 01°17' E 103°46'0 0.0
2015-Jan-19 19:30N 01°17' E 103°46'0 0.0
2015-Jan-19 18:30N 01°17' E 103°46'0 0.0
2015-Jan-19 17:30N 01°17' E 103°46'0 0.0
2015-Jan-19 16:30N 01°17' E 103°46'0 0.0
2015-Jan-19 15:33N 01°17' E 103°46'2 1.5
2015-Jan-19 14:34N 01°15' E 103°46'8 7.6
2015-Jan-19 13:32N 01°13' E 103°54'6 6.4
2015-Jan-19 12:33N 01°15' E 103°60'8 8.5
2015-Jan-19 11:33N 01°17' E 104°08'  

Dump ship's entire track history